sensor_id;sensor_type;location;lat;lon;timestamp;pressure;altitude;pressure_sealevel;temperature;humidity
29467;BME280;60968;37.490;-122.288;2023-04-24T00:01:10;98551.38;;;13.99;86.59
29467;BME280;60968;37.490;-122.288;2023-04-24T00:04:11;98552.44;;;13.94;88.04
29467;BME280;60968;37.490;-122.288;2023-04-24T00:07:12;98552.50;;;13.92;86.44
29467;BME280;60968;37.490;-122.288;2023-04-24T00:10:14;98559.94;;;13.79;88.40
29467;BME280;60968;37.490;-122.288;2023-04-24T00:13:15;98545.97;;;13.53;90.86
29467;BME280;60968;37.490;-122.288;2023-04-24T00:16:16;98565.75;;;13.62;90.42
29467;BME280;60968;37.490;-122.288;2023-04-24T00:19:17;98550.16;;;13.59;90.87
29467;BME280;60968;37.490;-122.288;2023-04-24T00:22:18;98551.66;;;13.40;91.15
29467;BME280;60968;37.490;-122.288;2023-04-24T00:25:22;98545.47;;;13.42;91.65
29467;BME280;60968;37.490;-122.288;2023-04-24T00:28:27;98543.88;;;13.38;91.70
29467;BME280;60968;37.490;-122.288;2023-04-24T00:31:28;98550.94;;;13.06;94.20
29467;BME280;60968;37.490;-122.288;2023-04-24T00:34:29;98546.44;;;13.11;93.95
29467;BME280;60968;37.490;-122.288;2023-04-24T00:37:30;98552.75;;;13.32;92.94
29467;BME280;60968;37.490;-122.288;2023-04-24T00:40:31;98557.31;;;13.26;92.65
29467;BME280;60968;37.490;-122.288;2023-04-24T00:43:33;98553.34;;;13.14;92.17
29467;BME280;60968;37.490;-122.288;2023-04-24T00:46:34;98544.94;;;13.04;94.40
29467;BME280;60968;37.490;-122.288;2023-04-24T00:49:36;98556.88;;;12.84;93.85
29467;BME280;60968;37.490;-122.288;2023-04-24T00:52:37;98554.56;;;13.02;94.64
29467;BME280;60968;37.490;-122.288;2023-04-24T00:55:38;98544.41;;;12.93;93.58
29467;BME280;60968;37.490;-122.288;2023-04-24T00:58:39;98546.53;;;13.08;92.96
29467;BME280;60968;37.490;-122.288;2023-04-24T01:01:43;98541.66;;;12.97;93.31
29467;BME280;60968;37.490;-122.288;2023-04-24T01:04:47;98543.31;;;12.72;93.96
29467;BME280;60968;37.490;-122.288;2023-04-24T01:07:49;98552.84;;;12.73;94.72
29467;BME280;60968;37.490;-122.288;2023-04-24T01:10:54;98550.09;;;12.47;95.93
29467;BME280;60968;37.490;-122.288;2023-04-24T01:13:56;98552.09;;;12.39;98.29
29467;BME280;60968;37.490;-122.288;2023-04-24T01:16:57;98556.84;;;12.25;99.51
29467;BME280;60968;37.490;-122.288;2023-04-24T01:20:01;98553.44;;;12.23;99.89
29467;BME280;60968;37.490;-122.288;2023-04-24T01:23:04;98552.75;;;12.16;99.94
29467;BME280;60968;37.490;-122.288;2023-04-24T01:26:06;98548.19;;;11.90;100.00
29467;BME280;60968;37.490;-122.288;2023-04-24T01:29:12;98546.75;;;11.79;100.00
29467;BME280;60968;37.490;-122.288;2023-04-24T01:32:14;98554.03;;;11.66;100.00
29467;BME280;60968;37.490;-122.288;2023-04-24T01:35:15;98559.81;;;11.45;100.00
29467;BME280;60968;37.490;-122.288;2023-04-24T01:38:16;98554.19;;;11.26;100.00
29467;BME280;60968;37.490;-122.288;2023-04-24T01:41:17;98557.88;;;11.17;100.00
29467;BME280;60968;37.490;-122.288;2023-04-24T01:44:20;98565.97;;;11.05;100.00
29467;BME280;60968;37.490;-122.288;2023-04-24T01:47:21;98552.25;;;10.96;100.00
29467;BME280;60968;37.490;-122.288;2023-04-24T01:50:23;98556.81;;;10.87;100.00
29467;BME280;60968;37.490;-122.288;2023-04-24T01:53:25;98544.56;;;10.92;100.00
29467;BME280;60968;37.490;-122.288;2023-04-24T01:56:33;98559.44;;;10.87;100.00
29467;BME280;60968;37.490;-122.288;2023-04-24T01:59:34;98549.34;;;10.71;100.00
29467;BME280;60968;37.490;-122.288;2023-04-24T02:02:37;98558.25;;;10.61;100.00
29467;BME280;60968;37.490;-122.288;2023-04-24T02:05:39;98547.53;;;10.34;100.00
29467;BME280;60968;37.490;-122.288;2023-04-24T02:08:40;98543.22;;;10.32;100.00
29467;BME280;60968;37.490;-122.288;2023-04-24T02:11:41;98547.88;;;10.16;100.00
29467;BME280;60968;37.490;-122.288;2023-04-24T02:14:45;98555.88;;;10.05;100.00
29467;BME280;60968;37.490;-122.288;2023-04-24T02:17:46;98547.50;;;9.90;100.00
29467;BME280;60968;37.490;-122.288;2023-04-24T02:20:47;98545.94;;;9.80;100.00
29467;BME280;60968;37.490;-122.288;2023-04-24T02:23:48;98549.66;;;9.67;100.00
29467;BME280;60968;37.490;-122.288;2023-04-24T02:26:49;98561.53;;;9.80;100.00
29467;BME280;60968;37.490;-122.288;2023-04-24T02:29:50;98549.50;;;9.74;100.00
29467;BME280;60968;37.490;-122.288;2023-04-24T02:32:52;98565.31;;;9.64;100.00
29467;BME280;60968;37.490;-122.288;2023-04-24T02:35:53;98576.72;;;9.55;100.00
29467;BME280;60968;37.490;-122.288;2023-04-24T02:38:56;98574.31;;;9.44;100.00
29467;BME280;60968;37.490;-122.288;2023-04-24T02:42:00;98581.28;;;9.42;100.00
29467;BME280;60968;37.490;-122.288;2023-04-24T02:45:02;98586.59;;;9.36;100.00
29467;BME280;60968;37.490;-122.288;2023-04-24T02:48:03;98579.63;;;9.36;100.00
29467;BME280;60968;37.490;-122.288;2023-04-24T02:51:07;98591.81;;;9.34;100.00
29467;BME280;60968;37.490;-122.288;2023-04-24T02:54:11;98577.09;;;9.33;100.00
29467;BME280;60968;37.490;-122.288;2023-04-24T02:57:11;98585.09;;;9.19;100.00
29467;BME280;60968;37.490;-122.288;2023-04-24T03:00:13;98588.66;;;9.14;100.00
29467;BME280;60968;37.490;-122.288;2023-04-24T03:03:14;98586.09;;;9.10;100.00
29467;BME280;60968;37.490;-122.288;2023-04-24T03:06:15;98592.31;;;9.02;100.00
29467;BME280;60968;37.490;-122.288;2023-04-24T03:09:17;98589.72;;;9.02;100.00
29467;BME280;60968;37.490;-122.288;2023-04-24T03:12:18;98596.63;;;9.01;100.00
29467;BME280;60968;37.490;-122.288;2023-04-24T03:15:18;98605.25;;;9.05;100.00
29467;BME280;60968;37.490;-122.288;2023-04-24T03:18:19;98600.13;;;9.00;100.00
29467;BME280;60968;37.490;-122.288;2023-04-24T03:21:20;98599.41;;;8.87;100.00
29467;BME280;60968;37.490;-122.288;2023-04-24T03:24:21;98588.19;;;8.85;100.00
29467;BME280;60968;37.490;-122.288;2023-04-24T03:27:22;98602.91;;;8.86;100.00
29467;BME280;60968;37.490;-122.288;2023-04-24T03:30:23;98594.25;;;8.84;100.00
29467;BME280;60968;37.490;-122.288;2023-04-24T03:33:24;98598.66;;;8.81;100.00
29467;BME280;60968;37.490;-122.288;2023-04-24T03:36:25;98597.75;;;8.83;100.00
29467;BME280;60968;37.490;-122.288;2023-04-24T03:39:26;98611.59;;;8.84;100.00
29467;BME280;60968;37.490;-122.288;2023-04-24T03:42:28;98627.19;;;8.84;100.00
29467;BME280;60968;37.490;-122.288;2023-04-24T03:45:29;98641.06;;;8.83;100.00
29467;BME280;60968;37.490;-122.288;2023-04-24T03:48:30;98635.06;;;8.78;100.00
29467;BME280;60968;37.490;-122.288;2023-04-24T03:51:33;98633.31;;;8.78;100.00
29467;BME280;60968;37.490;-122.288;2023-04-24T03:54:36;98637.66;;;8.79;100.00
29467;BME280;60968;37.490;-122.288;2023-04-24T03:57:37;98654.91;;;8.85;100.00
29467;BME280;60968;37.490;-122.288;2023-04-24T04:00:39;98642.72;;;8.88;100.00
29467;BME280;60968;37.490;-122.288;2023-04-24T04:03:39;98651.34;;;8.90;100.00
29467;BME280;60968;37.490;-122.288;2023-04-24T04:06:41;98655.59;;;8.98;100.00
29467;BME280;60968;37.490;-122.288;2023-04-24T04:09:44;98656.47;;;8.97;100.00
29467;BME280;60968;37.490;-122.288;2023-04-24T04:12:45;98659.09;;;8.95;100.00
29467;BME280;60968;37.490;-122.288;2023-04-24T04:15:46;98657.34;;;8.94;100.00
29467;BME280;60968;37.490;-122.288;2023-04-24T04:18:47;98638.31;;;8.93;100.00
29467;BME280;60968;37.490;-122.288;2023-04-24T04:21:49;98628.03;;;8.84;100.00
29467;BME280;60968;37.490;-122.288;2023-04-24T04:24:50;98631.53;;;8.82;100.00
29467;BME280;60968;37.490;-122.288;2023-04-24T04:27:50;98640.13;;;8.87;100.00
29467;BME280;60968;37.490;-122.288;2023-04-24T04:30:51;98652.22;;;8.91;100.00
29467;BME280;60968;37.490;-122.288;2023-04-24T04:33:52;98661.69;;;8.95;100.00
29467;BME280;60968;37.490;-122.288;2023-04-24T04:36:53;98669.44;;;8.98;100.00
29467;BME280;60968;37.490;-122.288;2023-04-24T04:39:55;98666.06;;;8.93;100.00
29467;BME280;60968;37.490;-122.288;2023-04-24T04:42:56;98664.38;;;8.87;100.00
29467;BME280;60968;37.490;-122.288;2023-04-24T04:45:58;98670.47;;;8.86;100.00
29467;BME280;60968;37.490;-122.288;2023-04-24T04:49:01;98676.59;;;8.81;100.00
29467;BME280;60968;37.490;-122.288;2023-04-24T04:52:04;98680.94;;;8.79;100.00
29467;BME280;60968;37.490;-122.288;2023-04-24T04:55:05;98680.94;;;8.79;100.00
29467;BME280;60968;37.490;-122.288;2023-04-24T04:58:06;98691.13;;;8.94;100.00
29467;BME280;60968;37.490;-122.288;2023-04-24T05:01:07;98695.44;;;8.97;100.00
29467;BME280;60968;37.490;-122.288;2023-04-24T05:04:08;98696.28;;;9.00;100.00
29467;BME280;60968;37.490;-122.288;2023-04-24T05:07:09;98683.16;;;9.08;100.00
29467;BME280;60968;37.490;-122.288;2023-04-24T05:10:10;98675.28;;;9.16;100.00
29467;BME280;60968;37.490;-122.288;2023-04-24T05:13:11;98681.13;;;9.30;100.00
29467;BME280;60968;37.490;-122.288;2023-04-24T05:16:12;98689.69;;;9.38;100.00
29467;BME280;60968;37.490;-122.288;2023-04-24T05:19:13;98700.03;;;9.41;100.00
29467;BME280;60968;37.490;-122.288;2023-04-24T05:22:14;98693.97;;;9.42;100.00
29467;BME280;60968;37.490;-122.288;2023-04-24T05:25:15;98694.91;;;9.38;100.00
29467;BME280;60968;37.490;-122.288;2023-04-24T05:28:16;98688.81;;;9.38;100.00
29467;BME280;60968;37.490;-122.288;2023-04-24T05:31:17;98680.91;;;9.46;100.00
29467;BME280;60968;37.490;-122.288;2023-04-24T05:34:18;98675.56;;;9.55;100.00
29467;BME280;60968;37.490;-122.288;2023-04-24T05:37:19;98670.25;;;9.63;100.00
29467;BME280;60968;37.490;-122.288;2023-04-24T05:40:20;98676.28;;;9.66;100.00
29467;BME280;60968;37.490;-122.288;2023-04-24T05:43:22;98665.72;;;9.74;100.00
29467;BME280;60968;37.490;-122.288;2023-04-24T05:46:23;98666.53;;;9.79;100.00
29467;BME280;60968;37.490;-122.288;2023-04-24T05:49:23;98663.00;;;9.83;100.00
29467;BME280;60968;37.490;-122.288;2023-04-24T05:52:26;98662.94;;;9.86;100.00
29467;BME280;60968;37.490;-122.288;2023-04-24T05:55:27;98654.19;;;9.90;100.00
29467;BME280;60968;37.490;-122.288;2023-04-24T05:58:28;98656.81;;;9.89;100.00
29467;BME280;60968;37.490;-122.288;2023-04-24T06:01:29;98652.53;;;9.86;100.00
29467;BME280;60968;37.490;-122.288;2023-04-24T06:04:31;98646.50;;;9.83;99.98
29467;BME280;60968;37.490;-122.288;2023-04-24T06:07:34;98653.41;;;9.85;99.92
29467;BME280;60968;37.490;-122.288;2023-04-24T06:10:36;98662.09;;;9.84;99.21
29467;BME280;60968;37.490;-122.288;2023-04-24T06:13:37;98669.94;;;9.81;98.11
29467;BME280;60968;37.490;-122.288;2023-04-24T06:16:40;98669.91;;;9.83;97.40
29467;BME280;60968;37.490;-122.288;2023-04-24T06:19:40;98675.16;;;9.81;96.91
29467;BME280;60968;37.490;-122.288;2023-04-24T06:22:41;98677.81;;;9.78;97.89
29467;BME280;60968;37.490;-122.288;2023-04-24T06:25:42;98689.03;;;9.80;97.18
29467;BME280;60968;37.490;-122.288;2023-04-24T06:28:43;98699.56;;;9.74;98.47
29467;BME280;60968;37.490;-122.288;2023-04-24T06:31:44;98695.34;;;9.67;98.36
29467;BME280;60968;37.490;-122.288;2023-04-24T06:34:45;98687.53;;;9.67;97.36
29467;BME280;60968;37.490;-122.288;2023-04-24T06:37:46;98678.84;;;9.68;96.29
29467;BME280;60968;37.490;-122.288;2023-04-24T06:40:47;98684.91;;;9.68;95.53
29467;BME280;60968;37.490;-122.288;2023-04-24T06:43:48;98682.28;;;9.70;93.77
29467;BME280;60968;37.490;-122.288;2023-04-24T06:46:50;98691.72;;;9.75;93.19
29467;BME280;60968;37.490;-122.288;2023-04-24T06:49:53;98693.47;;;9.75;92.56
29467;BME280;60968;37.490;-122.288;2023-04-24T06:52:53;98704.78;;;9.72;93.76
29467;BME280;60968;37.490;-122.288;2023-04-24T06:55:56;98701.44;;;9.64;95.27
29467;BME280;60968;37.490;-122.288;2023-04-24T06:58:57;98717.16;;;9.55;96.28
29467;BME280;60968;37.490;-122.288;2023-04-24T07:01:59;98705.28;;;9.40;97.50
29467;BME280;60968;37.490;-122.288;2023-04-24T07:05:00;98724.47;;;9.31;99.19
29467;BME280;60968;37.490;-122.288;2023-04-24T07:08:01;98719.38;;;9.22;100.00
29467;BME280;60968;37.490;-122.288;2023-04-24T07:11:02;98713.34;;;9.21;100.00
29467;BME280;60968;37.490;-122.288;2023-04-24T07:14:03;98709.81;;;9.25;100.00
29467;BME280;60968;37.490;-122.288;2023-04-24T07:17:04;98702.94;;;9.21;100.00
29467;BME280;60968;37.490;-122.288;2023-04-24T07:20:06;98702.19;;;9.12;100.00
29467;BME280;60968;37.490;-122.288;2023-04-24T07:23:09;98710.97;;;9.01;100.00
29467;BME280;60968;37.490;-122.288;2023-04-24T07:26:12;98700.66;;;8.95;100.00
29467;BME280;60968;37.490;-122.288;2023-04-24T07:29:15;98705.81;;;8.98;100.00
29467;BME280;60968;37.490;-122.288;2023-04-24T07:32:17;98710.06;;;9.05;98.35
29467;BME280;60968;37.490;-122.288;2023-04-24T07:35:18;98715.94;;;9.18;94.42
29467;BME280;60968;37.490;-122.288;2023-04-24T07:38:19;98721.16;;;9.20;90.98
29467;BME280;60968;37.490;-122.288;2023-04-24T07:41:20;98727.22;;;9.19;91.21
29467;BME280;60968;37.490;-122.288;2023-04-24T07:44:21;98735.91;;;9.16;90.98
29467;BME280;60968;37.490;-122.288;2023-04-24T07:51:18;98741.84;;;9.26;89.11
29467;BME280;60968;37.490;-122.288;2023-04-24T07:54:20;98732.47;;;9.13;89.43
29467;BME280;60968;37.490;-122.288;2023-04-24T07:57:23;98735.25;;;9.00;91.35
29467;BME280;60968;37.490;-122.288;2023-04-24T08:00:24;98741.28;;;9.02;91.47
29467;BME280;60968;37.490;-122.288;2023-04-24T08:03:25;98737.81;;;9.03;91.00
29467;BME280;60968;37.490;-122.288;2023-04-24T08:06:27;98734.31;;;9.06;89.78
29467;BME280;60968;37.490;-122.288;2023-04-24T08:09:28;98739.53;;;9.04;86.28
29467;BME280;60968;37.490;-122.288;2023-04-24T08:12:29;98733.34;;;9.13;85.02
29467;BME280;60968;37.490;-122.288;2023-04-24T08:15:30;98728.97;;;9.17;83.57
29467;BME280;60968;37.490;-122.288;2023-04-24T08:18:32;98729.88;;;9.16;83.22
29467;BME280;60968;37.490;-122.288;2023-04-24T08:21:33;98726.44;;;9.12;83.57
29467;BME280;60968;37.490;-122.288;2023-04-24T08:24:38;98721.25;;;9.10;85.67
29467;BME280;60968;37.490;-122.288;2023-04-24T08:27:39;98721.41;;;8.98;86.59
29467;BME280;60968;37.490;-122.288;2023-04-24T08:30:42;98718.03;;;8.90;88.83
29467;BME280;60968;37.490;-122.288;2023-04-24T08:33:43;98724.25;;;8.78;91.32
29467;BME280;60968;37.490;-122.288;2023-04-24T08:36:45;98728.72;;;8.67;89.83
29467;BME280;60968;37.490;-122.288;2023-04-24T08:39:46;98722.59;;;8.71;87.92
29467;BME280;60968;37.490;-122.288;2023-04-24T08:42:48;98715.69;;;8.70;85.91
29467;BME280;60968;37.490;-122.288;2023-04-24T08:45:51;98713.03;;;8.73;84.79
29467;BME280;60968;37.490;-122.288;2023-04-24T08:48:52;98713.81;;;8.81;82.96
29467;BME280;60968;37.490;-122.288;2023-04-24T08:51:53;98722.44;;;8.85;82.53
29467;BME280;60968;37.490;-122.288;2023-04-24T08:54:55;98714.66;;;8.85;81.00
29467;BME280;60968;37.490;-122.288;2023-04-24T08:57:59;98717.22;;;8.88;79.16
29467;BME280;60968;37.490;-122.288;2023-04-24T09:01:01;98716.34;;;8.89;78.42
29467;BME280;60968;37.490;-122.288;2023-04-24T09:04:03;98704.13;;;8.94;79.16
29467;BME280;60968;37.490;-122.288;2023-04-24T09:07:09;98698.97;;;8.91;80.00
29467;BME280;60968;37.490;-122.288;2023-04-24T09:10:11;98701.66;;;8.85;80.18
29467;BME280;60968;37.490;-122.288;2023-04-24T09:13:13;98704.28;;;8.83;79.74
29467;BME280;60968;37.490;-122.288;2023-04-24T09:16:18;98696.44;;;8.86;78.52
29467;BME280;60968;37.490;-122.288;2023-04-24T09:19:19;98695.56;;;8.89;77.32
29467;BME280;60968;37.490;-122.288;2023-04-24T09:22:21;98692.94;;;8.90;76.46
29467;BME280;60968;37.490;-122.288;2023-04-24T09:25:34;98689.50;;;8.87;77.81
29467;BME280;60968;37.490;-122.288;2023-04-24T09:28:37;98687.03;;;8.74;79.59
29467;BME280;60968;37.490;-122.288;2023-04-24T09:31:39;98685.44;;;8.64;80.59
29467;BME280;60968;37.490;-122.288;2023-04-24T09:38:24;98689.78;;;8.64;80.27
29467;BME280;60968;37.490;-122.288;2023-04-24T09:41:33;98681.97;;;8.65;78.98
29467;BME280;60968;37.490;-122.288;2023-04-24T09:44:34;98678.44;;;8.71;79.32
29467;BME280;60968;37.490;-122.288;2023-04-24T09:47:39;98683.66;;;8.66;82.81
29467;BME280;60968;37.490;-122.288;2023-04-24T09:50:46;98681.19;;;8.58;83.97
29467;BME280;60968;37.490;-122.288;2023-04-24T09:53:47;98678.66;;;8.52;85.71
29467;BME280;60968;37.490;-122.288;2023-04-24T09:56:51;98684.75;;;8.50;83.94
29467;BME280;60968;37.490;-122.288;2023-04-24T09:59:54;98683.00;;;8.49;84.99
29467;BME280;60968;37.490;-122.288;2023-04-24T10:02:56;98684.81;;;8.40;87.25
29467;BME280;60968;37.490;-122.288;2023-04-24T10:06:01;98678.81;;;8.34;88.82
29467;BME280;60968;37.490;-122.288;2023-04-24T10:09:02;98679.69;;;8.34;88.77
29467;BME280;60968;37.490;-122.288;2023-04-24T10:12:04;98671.06;;;8.31;88.29
29467;BME280;60968;37.490;-122.288;2023-04-24T10:15:08;98669.34;;;8.28;88.67
29467;BME280;60968;37.490;-122.288;2023-04-24T10:18:11;98666.75;;;8.28;86.41
29467;BME280;60968;37.490;-122.288;2023-04-24T10:21:14;98662.34;;;8.35;85.24
29467;BME280;60968;37.490;-122.288;2023-04-24T10:24:19;98662.31;;;8.38;86.17
29467;BME280;60968;37.490;-122.288;2023-04-24T10:27:20;98669.31;;;8.33;87.66
29467;BME280;60968;37.490;-122.288;2023-04-24T10:30:23;98667.63;;;8.29;88.85
29467;BME280;60968;37.490;-122.288;2023-04-24T10:33:26;98669.38;;;8.27;88.54
29467;BME280;60968;37.490;-122.288;2023-04-24T10:36:30;98674.56;;;8.25;89.58
29467;BME280;60968;37.490;-122.288;2023-04-24T10:39:36;98689.41;;;8.14;91.61
29467;BME280;60968;37.490;-122.288;2023-04-24T10:42:40;98698.03;;;8.13;93.25
29467;BME280;60968;37.490;-122.288;2023-04-24T10:46:01;98692.84;;;8.14;89.95
29467;BME280;60968;37.490;-122.288;2023-04-24T10:49:07;98680.72;;;8.16;89.52
29467;BME280;60968;37.490;-122.288;2023-04-24T10:52:09;98675.59;;;8.12;89.65
29467;BME280;60968;37.490;-122.288;2023-04-24T10:55:13;98675.59;;;8.08;91.24
29467;BME280;60968;37.490;-122.288;2023-04-24T10:58:15;98682.56;;;8.03;92.09
29467;BME280;60968;37.490;-122.288;2023-04-24T11:01:28;98684.31;;;8.04;91.92
29467;BME280;60968;37.490;-122.288;2023-04-24T11:04:32;98678.22;;;8.05;90.42
29467;BME280;60968;37.490;-122.288;2023-04-24T11:11:17;98676.50;;;8.03;90.38
29467;BME280;60968;37.490;-122.288;2023-04-24T11:14:18;98673.03;;;8.05;88.19
29467;BME280;60968;37.490;-122.288;2023-04-24T11:17:36;98688.53;;;8.15;86.94
29467;BME280;60968;37.490;-122.288;2023-04-24T11:20:42;98689.31;;;8.23;85.71
29467;BME280;60968;37.490;-122.288;2023-04-24T11:23:45;98682.28;;;8.34;84.23
29467;BME280;60968;37.490;-122.288;2023-04-24T11:26:46;98677.97;;;8.33;83.91
29467;BME280;60968;37.490;-122.288;2023-04-24T11:33:03;98683.19;;;8.30;84.92
29467;BME280;60968;37.490;-122.288;2023-04-24T11:36:06;98691.88;;;8.26;84.58
29467;BME280;60968;37.490;-122.288;2023-04-24T11:39:07;98678.00;;;8.30;83.72
29467;BME280;60968;37.490;-122.288;2023-04-24T11:42:09;98687.44;;;8.36;83.26
29467;BME280;60968;37.490;-122.288;2023-04-24T11:45:13;98681.34;;;8.40;83.17
29467;BME280;60968;37.490;-122.288;2023-04-24T11:48:21;98687.34;;;8.44;84.31
29467;BME280;60968;37.490;-122.288;2023-04-24T11:51:26;98683.06;;;8.43;85.29
29467;BME280;60968;37.490;-122.288;2023-04-24T11:54:28;98679.63;;;8.39;86.38
29467;BME280;60968;37.490;-122.288;2023-04-24T11:57:29;98678.78;;;8.35;86.72
29467;BME280;60968;37.490;-122.288;2023-04-24T12:00:32;98676.19;;;8.37;86.62
29467;BME280;60968;37.490;-122.288;2023-04-24T12:03:35;98684.84;;;8.36;89.17
29467;BME280;60968;37.490;-122.288;2023-04-24T12:06:36;98687.50;;;8.28;91.65
29467;BME280;60968;37.490;-122.288;2023-04-24T12:13:00;98676.38;;;8.17;92.21
29467;BME280;60968;37.490;-122.288;2023-04-24T12:16:04;98674.66;;;8.19;91.18
29467;BME280;60968;37.490;-122.288;2023-04-24T12:19:05;98677.22;;;8.22;88.76
29467;BME280;60968;37.490;-122.288;2023-04-24T12:22:06;98671.97;;;8.25;88.11
29467;BME280;60968;37.490;-122.288;2023-04-24T12:25:10;98669.31;;;8.30;87.58
29467;BME280;60968;37.490;-122.288;2023-04-24T12:28:13;98672.81;;;8.30;88.12
29467;BME280;60968;37.490;-122.288;2023-04-24T12:31:19;98676.28;;;8.28;88.07
29467;BME280;60968;37.490;-122.288;2023-04-24T12:34:23;98678.97;;;8.17;89.83
29467;BME280;60968;37.490;-122.288;2023-04-24T12:37:25;98689.47;;;8.06;90.94
29467;BME280;60968;37.490;-122.288;2023-04-24T12:40:26;98686.91;;;8.04;92.04
29467;BME280;60968;37.490;-122.288;2023-04-24T12:43:30;98694.75;;;7.95;92.15
29467;BME280;60968;37.490;-122.288;2023-04-24T12:46:31;98692.31;;;7.77;94.38
29467;BME280;60968;37.490;-122.288;2023-04-24T12:49:37;98693.25;;;7.66;95.77
29467;BME280;60968;37.490;-122.288;2023-04-24T12:52:38;98688.97;;;7.59;96.78
29467;BME280;60968;37.490;-122.288;2023-04-24T12:55:39;98696.81;;;7.53;98.94
29467;BME280;60968;37.490;-122.288;2023-04-24T12:58:42;98684.75;;;7.49;100.00
29467;BME280;60968;37.490;-122.288;2023-04-24T13:01:44;98682.97;;;7.51;100.00
29467;BME280;60968;37.490;-122.288;2023-04-24T13:04:48;98678.66;;;7.54;100.00
29467;BME280;60968;37.490;-122.288;2023-04-24T13:07:50;98682.88;;;7.66;100.00
29467;BME280;60968;37.490;-122.288;2023-04-24T13:10:52;98683.69;;;7.73;100.00
29467;BME280;60968;37.490;-122.288;2023-04-24T13:13:53;98684.53;;;7.77;100.00
29467;BME280;60968;37.490;-122.288;2023-04-24T13:16:55;98686.19;;;7.85;100.00
29467;BME280;60968;37.490;-122.288;2023-04-24T13:19:56;98697.41;;;7.87;100.00
29467;BME280;60968;37.490;-122.288;2023-04-24T13:22:57;98694.81;;;7.87;100.00
29467;BME280;60968;37.490;-122.288;2023-04-24T13:25:58;98694.81;;;7.89;100.00
29467;BME280;60968;37.490;-122.288;2023-04-24T13:29:00;98693.97;;;7.85;100.00
29467;BME280;60968;37.490;-122.288;2023-04-24T13:32:03;98694.81;;;7.89;100.00
29467;BME280;60968;37.490;-122.288;2023-04-24T13:35:05;98699.09;;;7.92;100.00
29467;BME280;60968;37.490;-122.288;2023-04-24T13:38:07;98694.72;;;7.98;100.00
29467;BME280;60968;37.490;-122.288;2023-04-24T13:41:07;98707.63;;;8.07;100.00
29467;BME280;60968;37.490;-122.288;2023-04-24T13:44:08;98705.84;;;8.11;100.00
29467;BME280;60968;37.490;-122.288;2023-04-24T13:47:09;98710.13;;;8.17;100.00
29467;BME280;60968;37.490;-122.288;2023-04-24T13:50:10;98717.00;;;8.22;100.00
29467;BME280;60968;37.490;-122.288;2023-04-24T13:53:11;98723.84;;;8.28;100.00
29467;BME280;60968;37.490;-122.288;2023-04-24T13:56:16;98725.59;;;8.29;100.00
29467;BME280;60968;37.490;-122.288;2023-04-24T13:59:20;98716.03;;;8.33;100.00
29467;BME280;60968;37.490;-122.288;2023-04-24T14:02:21;98716.00;;;8.36;100.00
29467;BME280;60968;37.490;-122.288;2023-04-24T14:05:23;98723.75;;;8.39;100.00
29467;BME280;60968;37.490;-122.288;2023-04-24T14:08:24;98709.91;;;8.40;100.00
29467;BME280;60968;37.490;-122.288;2023-04-24T14:11:26;98709.03;;;8.46;100.00
29467;BME280;60968;37.490;-122.288;2023-04-24T14:14:29;98719.31;;;8.53;100.00
29467;BME280;60968;37.490;-122.288;2023-04-24T14:17:30;98725.22;;;8.66;100.00
29467;BME280;60968;37.490;-122.288;2023-04-24T14:20:31;98728.50;;;8.84;100.00
29467;BME280;60968;37.490;-122.288;2023-04-24T14:23:33;98729.16;;;9.01;100.00
29467;BME280;60968;37.490;-122.288;2023-04-24T14:26:34;98723.78;;;9.15;100.00
29467;BME280;60968;37.490;-122.288;2023-04-24T14:29:36;98735.78;;;9.27;100.00
29467;BME280;60968;37.490;-122.288;2023-04-24T14:32:38;98732.97;;;9.42;100.00
29467;BME280;60968;37.490;-122.288;2023-04-24T14:35:43;98741.38;;;9.60;100.00
29467;BME280;60968;37.490;-122.288;2023-04-24T14:38:46;98751.56;;;9.75;100.00
29467;BME280;60968;37.490;-122.288;2023-04-24T14:41:47;98752.91;;;10.01;100.00
29467;BME280;60968;37.490;-122.288;2023-04-24T14:44:48;98754.66;;;10.54;100.00
29467;BME280;60968;37.490;-122.288;2023-04-24T14:47:52;98750.59;;;12.42;100.00
29467;BME280;60968;37.490;-122.288;2023-04-24T14:50:55;98749.69;;;14.22;78.65
29467;BME280;60968;37.490;-122.288;2023-04-24T14:53:56;98750.41;;;15.97;71.91
29467;BME280;60968;37.490;-122.288;2023-04-24T14:56:57;98752.34;;;16.97;66.63
29467;BME280;60968;37.490;-122.288;2023-04-24T14:59:58;98749.66;;;17.75;63.92
29467;BME280;60968;37.490;-122.288;2023-04-24T15:03:00;98751.28;;;17.78;59.86
29467;BME280;60968;37.490;-122.288;2023-04-24T15:06:03;98754.41;;;17.86;57.42
29467;BME280;60968;37.490;-122.288;2023-04-24T15:09:04;98759.53;;;18.78;53.53
29467;BME280;60968;37.490;-122.288;2023-04-24T15:12:05;98763.78;;;19.32;51.38
29467;BME280;60968;37.490;-122.288;2023-04-24T15:15:06;98754.28;;;19.93;48.64
29467;BME280;60968;37.490;-122.288;2023-04-24T15:18:10;98751.38;;;20.75;47.71
29467;BME280;60968;37.490;-122.288;2023-04-24T15:21:11;98748.72;;;20.89;46.08
29467;BME280;60968;37.490;-122.288;2023-04-24T15:24:11;98742.84;;;21.56;44.70
29467;BME280;60968;37.490;-122.288;2023-04-24T15:27:13;98748.63;;;20.90;44.70
29467;BME280;60968;37.490;-122.288;2023-04-24T15:30:14;98750.69;;;21.72;44.57
29467;BME280;60968;37.490;-122.288;2023-04-24T15:33:14;98744.25;;;22.43;41.24
29467;BME280;60968;37.490;-122.288;2023-04-24T15:36:19;98740.38;;;21.95;41.66
29467;BME280;60968;37.490;-122.288;2023-04-24T15:39:23;98737.03;;;22.58;36.11
29467;BME280;60968;37.490;-122.288;2023-04-24T15:42:26;98748.22;;;23.02;37.94
29467;BME280;60968;37.490;-122.288;2023-04-24T15:45:26;98767.25;;;22.03;41.58
29467;BME280;60968;37.490;-122.288;2023-04-24T15:48:29;98773.59;;;22.68;40.96